sensor_id;sensor_type;location;lat;lon;timestamp;temperature;humidity
54178;DHT22;40085;53.004;6.770;2022-12-18T00:02:04;-3.50;99.90
54178;DHT22;40085;53.004;6.770;2022-12-18T00:04:30;-3.50;99.90
54178;DHT22;40085;53.004;6.770;2022-12-18T00:06:55;-3.50;99.90
54178;DHT22;40085;53.004;6.770;2022-12-18T00:09:21;-3.50;99.90
54178;DHT22;40085;53.004;6.770;2022-12-18T00:11:47;-3.60;99.90
54178;DHT22;40085;53.004;6.770;2022-12-18T00:14:13;-3.60;99.90
54178;DHT22;40085;53.004;6.770;2022-12-18T00:16:39;-3.60;99.90
54178;DHT22;40085;53.004;6.770;2022-12-18T00:19:06;-3.70;99.90
54178;DHT22;40085;53.004;6.770;2022-12-18T00:21:33;-3.70;99.90
54178;DHT22;40085;53.004;6.770;2022-12-18T00:23:59;-3.70;99.90
54178;DHT22;40085;53.004;6.770;2022-12-18T00:26:28;-3.80;99.90
54178;DHT22;40085;53.004;6.770;2022-12-18T00:28:55;-3.30;99.90
54178;DHT22;40085;53.004;6.770;2022-12-18T00:31:24;-3.80;99.90
54178;DHT22;40085;53.004;6.770;2022-12-18T00:33:50;-3.80;99.90
54178;DHT22;40085;53.004;6.770;2022-12-18T00:36:20;-3.80;99.90
54178;DHT22;40085;53.004;6.770;2022-12-18T00:38:47;-3.80;99.90
54178;DHT22;40085;53.004;6.770;2022-12-18T00:41:15;-3.80;99.90
54178;DHT22;40085;53.004;6.770;2022-12-18T00:43:59;-3.80;99.90
54178;DHT22;40085;53.004;6.770;2022-12-18T00:46:24;-3.80;99.90
54178;DHT22;40085;53.004;6.770;2022-12-18T00:48:50;-3.80;99.90
54178;DHT22;40085;53.004;6.770;2022-12-18T00:51:15;-3.80;99.90
54178;DHT22;40085;53.004;6.770;2022-12-18T00:53:41;-3.80;99.90
54178;DHT22;40085;53.004;6.770;2022-12-18T00:56:07;-3.80;99.90
54178;DHT22;40085;53.004;6.770;2022-12-18T00:58:35;-3.80;99.90
54178;DHT22;40085;53.004;6.770;2022-12-18T01:01:01;-3.50;99.90
54178;DHT22;40085;53.004;6.770;2022-12-18T01:03:26;-3.80;99.90
54178;DHT22;40085;53.004;6.770;2022-12-18T01:05:52;-3.80;99.90
54178;DHT22;40085;53.004;6.770;2022-12-18T01:08:17;-3.80;99.90
54178;DHT22;40085;53.004;6.770;2022-12-18T01:10:43;-3.80;99.90
54178;DHT22;40085;53.004;6.770;2022-12-18T01:13:08;-3.80;99.90
54178;DHT22;40085;53.004;6.770;2022-12-18T01:15:34;-3.80;99.90
54178;DHT22;40085;53.004;6.770;2022-12-18T01:17:59;-3.80;99.90
54178;DHT22;40085;53.004;6.770;2022-12-18T01:20:25;-3.80;99.90
54178;DHT22;40085;53.004;6.770;2022-12-18T01:22:51;-3.80;99.90
54178;DHT22;40085;53.004;6.770;2022-12-18T01:25:16;-3.80;99.90
54178;DHT22;40085;53.004;6.770;2022-12-18T01:27:42;-3.80;99.90
54178;DHT22;40085;53.004;6.770;2022-12-18T01:30:08;-3.80;99.90
54178;DHT22;40085;53.004;6.770;2022-12-18T01:32:33;-3.80;99.90
54178;DHT22;40085;53.004;6.770;2022-12-18T01:34:59;-3.80;99.90
54178;DHT22;40085;53.004;6.770;2022-12-18T01:37:25;-3.80;99.90
54178;DHT22;40085;53.004;6.770;2022-12-18T01:39:51;-3.50;99.90
54178;DHT22;40085;53.004;6.770;2022-12-18T01:42:20;-3.90;99.90
54178;DHT22;40085;53.004;6.770;2022-12-18T01:47:51;-3.90;99.90
54178;DHT22;40085;53.004;6.770;2022-12-18T01:50:39;-4.00;99.90
54178;DHT22;40085;53.004;6.770;2022-12-18T01:53:07;-4.00;99.90
54178;DHT22;40085;53.004;6.770;2022-12-18T01:55:55;-4.10;99.90
54178;DHT22;40085;53.004;6.770;2022-12-18T01:58:34;-4.10;99.90
54178;DHT22;40085;53.004;6.770;2022-12-18T02:01:00;-4.10;99.90
54178;DHT22;40085;53.004;6.770;2022-12-18T02:03:26;-3.70;99.90
54178;DHT22;40085;53.004;6.770;2022-12-18T02:09:08;-4.20;99.90
54178;DHT22;40085;53.004;6.770;2022-12-18T02:14:27;-4.30;99.90
54178;DHT22;40085;53.004;6.770;2022-12-18T02:16:57;-4.30;99.90
54178;DHT22;40085;53.004;6.770;2022-12-18T02:22:19;-4.30;99.90
54178;DHT22;40085;53.004;6.770;2022-12-18T02:25:13;-4.40;99.90
54178;DHT22;40085;53.004;6.770;2022-12-18T02:27:41;-4.30;99.90
54178;DHT22;40085;53.004;6.770;2022-12-18T02:30:10;-4.30;99.90
54178;DHT22;40085;53.004;6.770;2022-12-18T02:32:43;-4.40;99.90
54178;DHT22;40085;53.004;6.770;2022-12-18T02:35:15;-4.40;99.90
54178;DHT22;40085;53.004;6.770;2022-12-18T02:37:42;-4.40;99.90
54178;DHT22;40085;53.004;6.770;2022-12-18T02:40:09;-4.40;99.90
54178;DHT22;40085;53.004;6.770;2022-12-18T02:42:36;-4.50;99.90
54178;DHT22;40085;53.004;6.770;2022-12-18T02:45:02;-4.50;99.90
54178;DHT22;40085;53.004;6.770;2022-12-18T02:47:31;-4.50;99.90
54178;DHT22;40085;53.004;6.770;2022-12-18T02:50:02;-4.50;99.90
54178;DHT22;40085;53.004;6.770;2022-12-18T02:52:43;-4.60;99.90
54178;DHT22;40085;53.004;6.770;2022-12-18T02:58:16;-4.60;99.90
54178;DHT22;40085;53.004;6.770;2022-12-18T03:00:52;-4.70;99.90
54178;DHT22;40085;53.004;6.770;2022-12-18T03:03:26;-4.60;99.90
54178;DHT22;40085;53.004;6.770;2022-12-18T03:06:00;-4.70;99.90
54178;DHT22;40085;53.004;6.770;2022-12-18T03:08:35;-4.60;99.90
54178;DHT22;40085;53.004;6.770;2022-12-18T03:11:06;-4.70;99.90
54178;DHT22;40085;53.004;6.770;2022-12-18T03:13:37;-4.70;99.90
54178;DHT22;40085;53.004;6.770;2022-12-18T03:16:06;-4.80;99.90
54178;DHT22;40085;53.004;6.770;2022-12-18T03:21:10;-4.80;99.90
54178;DHT22;40085;53.004;6.770;2022-12-18T03:23:41;-4.80;99.90
54178;DHT22;40085;53.004;6.770;2022-12-18T03:26:14;-4.80;99.90
54178;DHT22;40085;53.004;6.770;2022-12-18T03:28:46;-4.90;99.90
54178;DHT22;40085;53.004;6.770;2022-12-18T03:31:14;-4.80;99.90
54178;DHT22;40085;53.004;6.770;2022-12-18T03:33:54;-4.90;99.90
54178;DHT22;40085;53.004;6.770;2022-12-18T03:36:21;-4.90;99.90
54178;DHT22;40085;53.004;6.770;2022-12-18T03:38:47;-4.90;99.90
54178;DHT22;40085;53.004;6.770;2022-12-18T03:41:32;-4.90;99.90
54178;DHT22;40085;53.004;6.770;2022-12-18T03:44:20;-5.00;99.90
54178;DHT22;40085;53.004;6.770;2022-12-18T03:47:00;-5.00;99.90
54178;DHT22;40085;53.004;6.770;2022-12-18T03:49:48;-5.00;99.90
54178;DHT22;40085;53.004;6.770;2022-12-18T03:52:40;-5.00;99.90
54178;DHT22;40085;53.004;6.770;2022-12-18T03:55:09;-5.00;99.90
54178;DHT22;40085;53.004;6.770;2022-12-18T03:57:36;-5.00;99.90
54178;DHT22;40085;53.004;6.770;2022-12-18T04:00:13;-5.00;99.90
54178;DHT22;40085;53.004;6.770;2022-12-18T04:02:44;-5.10;99.90
54178;DHT22;40085;53.004;6.770;2022-12-18T04:05:12;-5.10;99.90
54178;DHT22;40085;53.004;6.770;2022-12-18T04:07:39;-5.10;99.90
54178;DHT22;40085;53.004;6.770;2022-12-18T04:10:06;-5.10;99.90
54178;DHT22;40085;53.004;6.770;2022-12-18T04:12:32;-5.10;99.90
54178;DHT22;40085;53.004;6.770;2022-12-18T04:14:58;-4.70;99.90
54178;DHT22;40085;53.004;6.770;2022-12-18T04:17:24;-5.20;99.90
54178;DHT22;40085;53.004;6.770;2022-12-18T04:19:50;-5.10;99.90
54178;DHT22;40085;53.004;6.770;2022-12-18T04:22:16;-5.20;99.90
54178;DHT22;40085;53.004;6.770;2022-12-18T04:24:41;-5.20;99.90
54178;DHT22;40085;53.004;6.770;2022-12-18T04:27:07;-4.80;99.90
54178;DHT22;40085;53.004;6.770;2022-12-18T04:29:33;-5.20;99.90
54178;DHT22;40085;53.004;6.770;2022-12-18T04:31:59;-5.20;99.90
54178;DHT22;40085;53.004;6.770;2022-12-18T04:34:24;-5.30;99.90
54178;DHT22;40085;53.004;6.770;2022-12-18T04:36:50;-5.20;99.90
54178;DHT22;40085;53.004;6.770;2022-12-18T04:39:19;-5.20;99.90
54178;DHT22;40085;53.004;6.770;2022-12-18T04:41:45;-5.00;99.90
54178;DHT22;40085;53.004;6.770;2022-12-18T04:44:10;-4.80;99.90
54178;DHT22;40085;53.004;6.770;2022-12-18T04:46:36;-5.20;99.90
54178;DHT22;40085;53.004;6.770;2022-12-18T04:49:01;-5.20;99.90
54178;DHT22;40085;53.004;6.770;2022-12-18T04:51:27;-5.20;99.90
54178;DHT22;40085;53.004;6.770;2022-12-18T04:53:53;-5.20;99.90
54178;DHT22;40085;53.004;6.770;2022-12-18T04:56:18;-5.10;99.90
54178;DHT22;40085;53.004;6.770;2022-12-18T04:58:44;-5.30;99.90
54178;DHT22;40085;53.004;6.770;2022-12-18T05:01:12;-5.30;99.90
54178;DHT22;40085;53.004;6.770;2022-12-18T05:03:38;-4.80;99.90
54178;DHT22;40085;53.004;6.770;2022-12-18T05:06:04;-5.00;99.90
54178;DHT22;40085;53.004;6.770;2022-12-18T05:08:30;-5.40;99.90
54178;DHT22;40085;53.004;6.770;2022-12-18T05:13:29;-5.50;99.90
54178;DHT22;40085;53.004;6.770;2022-12-18T05:15:55;-5.50;99.90
54178;DHT22;40085;53.004;6.770;2022-12-18T05:18:22;-5.50;99.90
54178;DHT22;40085;53.004;6.770;2022-12-18T05:20:49;-5.20;99.90
54178;DHT22;40085;53.004;6.770;2022-12-18T05:23:15;-5.50;99.90
54178;DHT22;40085;53.004;6.770;2022-12-18T05:25:40;-5.50;99.90
54178;DHT22;40085;53.004;6.770;2022-12-18T05:28:06;-5.60;99.90
54178;DHT22;40085;53.004;6.770;2022-12-18T05:30:31;-5.60;99.90
54178;DHT22;40085;53.004;6.770;2022-12-18T05:32:57;-5.60;99.90
54178;DHT22;40085;53.004;6.770;2022-12-18T05:35:22;-5.60;99.90
54178;DHT22;40085;53.004;6.770;2022-12-18T05:37:48;-5.60;99.90
54178;DHT22;40085;53.004;6.770;2022-12-18T05:40:14;-5.20;99.90
54178;DHT22;40085;53.004;6.770;2022-12-18T05:42:39;-5.60;99.90
54178;DHT22;40085;53.004;6.770;2022-12-18T05:45:05;-5.60;99.90
54178;DHT22;40085;53.004;6.770;2022-12-18T05:47:31;-5.60;99.90
54178;DHT22;40085;53.004;6.770;2022-12-18T05:49:57;-5.60;99.90
54178;DHT22;40085;53.004;6.770;2022-12-18T05:52:22;-5.40;99.90
54178;DHT22;40085;53.004;6.770;2022-12-18T05:54:48;-5.70;99.90
54178;DHT22;40085;53.004;6.770;2022-12-18T05:57:14;-5.60;99.90
54178;DHT22;40085;53.004;6.770;2022-12-18T05:59:39;-5.70;99.90
54178;DHT22;40085;53.004;6.770;2022-12-18T06:02:05;-5.70;99.90
54178;DHT22;40085;53.004;6.770;2022-12-18T06:04:31;-5.70;99.90
54178;DHT22;40085;53.004;6.770;2022-12-18T06:06:57;-5.70;99.90
54178;DHT22;40085;53.004;6.770;2022-12-18T06:09:23;-5.50;99.90
54178;DHT22;40085;53.004;6.770;2022-12-18T06:11:48;-5.70;99.90
54178;DHT22;40085;53.004;6.770;2022-12-18T06:14:16;-5.70;99.90
54178;DHT22;40085;53.004;6.770;2022-12-18T06:16:42;-5.70;99.90
54178;DHT22;40085;53.004;6.770;2022-12-18T06:19:12;-5.30;99.90
54178;DHT22;40085;53.004;6.770;2022-12-18T06:21:38;-5.40;99.90
54178;DHT22;40085;53.004;6.770;2022-12-18T06:24:04;-5.70;99.90
54178;DHT22;40085;53.004;6.770;2022-12-18T06:26:30;-5.80;99.90
54178;DHT22;40085;53.004;6.770;2022-12-18T06:28:55;-5.30;99.90
54178;DHT22;40085;53.004;6.770;2022-12-18T06:31:21;-5.90;99.90
54178;DHT22;40085;53.004;6.770;2022-12-18T06:33:47;-6.00;99.90
54178;DHT22;40085;53.004;6.770;2022-12-18T06:36:13;-6.00;99.90
54178;DHT22;40085;53.004;6.770;2022-12-18T06:38:41;-5.60;99.90
54178;DHT22;40085;53.004;6.770;2022-12-18T06:41:13;-6.10;99.90
54178;DHT22;40085;53.004;6.770;2022-12-18T06:43:38;-6.10;99.90
54178;DHT22;40085;53.004;6.770;2022-12-18T06:46:04;-6.20;99.90
54178;DHT22;40085;53.004;6.770;2022-12-18T06:48:30;-6.10;99.90
54178;DHT22;40085;53.004;6.770;2022-12-18T06:50:56;-6.20;99.90
54178;DHT22;40085;53.004;6.770;2022-12-18T06:53:22;-6.30;99.90
54178;DHT22;40085;53.004;6.770;2022-12-18T06:55:47;-6.30;99.90
54178;DHT22;40085;53.004;6.770;2022-12-18T06:58:13;-6.10;99.90
54178;DHT22;40085;53.004;6.770;2022-12-18T07:00:39;-6.40;99.90
54178;DHT22;40085;53.004;6.770;2022-12-18T07:03:04;-5.40;99.90
54178;DHT22;40085;53.004;6.770;2022-12-18T07:05:30;-6.40;99.90
54178;DHT22;40085;53.004;6.770;2022-12-18T07:07:56;-6.40;99.90
54178;DHT22;40085;53.004;6.770;2022-12-18T07:10:21;-6.50;99.90
54178;DHT22;40085;53.004;6.770;2022-12-18T07:12:47;-6.50;99.90
54178;DHT22;40085;53.004;6.770;2022-12-18T07:15:12;-6.60;99.90
54178;DHT22;40085;53.004;6.770;2022-12-18T07:17:38;-6.60;99.90
54178;DHT22;40085;53.004;6.770;2022-12-18T07:20:04;-6.60;99.90
54178;DHT22;40085;53.004;6.770;2022-12-18T07:22:30;-6.60;99.90
54178;DHT22;40085;53.004;6.770;2022-12-18T07:24:55;-6.60;99.90
54178;DHT22;40085;53.004;6.770;2022-12-18T07:27:22;-6.70;99.90
54178;DHT22;40085;53.004;6.770;2022-12-18T07:29:47;-6.70;99.90
54178;DHT22;40085;53.004;6.770;2022-12-18T07:32:13;-6.70;99.90
54178;DHT22;40085;53.004;6.770;2022-12-18T07:34:39;-6.70;99.90
54178;DHT22;40085;53.004;6.770;2022-12-18T07:37:04;-6.60;99.90
54178;DHT22;40085;53.004;6.770;2022-12-18T07:39:30;-6.60;99.90
54178;DHT22;40085;53.004;6.770;2022-12-18T07:41:56;-6.70;99.90
54178;DHT22;40085;53.004;6.770;2022-12-18T07:44:40;-6.70;99.90
54178;DHT22;40085;53.004;6.770;2022-12-18T07:47:05;-6.60;99.90
54178;DHT22;40085;53.004;6.770;2022-12-18T07:49:31;-6.60;99.90
54178;DHT22;40085;53.004;6.770;2022-12-18T07:51:57;-6.60;99.90
54178;DHT22;40085;53.004;6.770;2022-12-18T07:54:23;-6.60;99.90
54178;DHT22;40085;53.004;6.770;2022-12-18T07:56:50;-6.60;99.90
54178;DHT22;40085;53.004;6.770;2022-12-18T07:59:16;-6.30;99.90
54178;DHT22;40085;53.004;6.770;2022-12-18T08:01:42;-6.40;99.90
54178;DHT22;40085;53.004;6.770;2022-12-18T08:04:07;-6.40;99.90
54178;DHT22;40085;53.004;6.770;2022-12-18T08:06:33;-6.30;99.90
54178;DHT22;40085;53.004;6.770;2022-12-18T08:08:58;-6.30;99.90
54178;DHT22;40085;53.004;6.770;2022-12-18T08:11:25;-6.20;99.90
54178;DHT22;40085;53.004;6.770;2022-12-18T08:13:52;-6.10;99.90
54178;DHT22;40085;53.004;6.770;2022-12-18T08:16:18;-6.10;99.90
54178;DHT22;40085;53.004;6.770;2022-12-18T08:18:43;-6.00;99.90
54178;DHT22;40085;53.004;6.770;2022-12-18T08:21:18;-5.50;99.90
54178;DHT22;40085;53.004;6.770;2022-12-18T08:23:46;-5.90;99.90
54178;DHT22;40085;53.004;6.770;2022-12-18T08:26:12;-5.80;99.90
54178;DHT22;40085;53.004;6.770;2022-12-18T08:28:38;-5.80;99.90
54178;DHT22;40085;53.004;6.770;2022-12-18T08:31:04;-5.80;99.90
54178;DHT22;40085;53.004;6.770;2022-12-18T08:33:30;-5.80;99.90
54178;DHT22;40085;53.004;6.770;2022-12-18T08:35:56;-5.70;99.90
54178;DHT22;40085;53.004;6.770;2022-12-18T08:38:23;-5.20;99.90
54178;DHT22;40085;53.004;6.770;2022-12-18T08:40:48;-5.70;99.90
54178;DHT22;40085;53.004;6.770;2022-12-18T08:43:14;-5.70;99.90
54178;DHT22;40085;53.004;6.770;2022-12-18T08:45:58;-5.70;99.90
54178;DHT22;40085;53.004;6.770;2022-12-18T08:48:23;-5.70;99.90
54178;DHT22;40085;53.004;6.770;2022-12-18T08:50:59;-5.60;99.90
54178;DHT22;40085;53.004;6.770;2022-12-18T08:53:25;-5.60;99.90
54178;DHT22;40085;53.004;6.770;2022-12-18T08:55:51;-5.50;99.90
54178;DHT22;40085;53.004;6.770;2022-12-18T08:58:17;-5.20;99.90
54178;DHT22;40085;53.004;6.770;2022-12-18T09:00:43;-5.50;99.90
54178;DHT22;40085;53.004;6.770;2022-12-18T09:03:17;-5.40;99.90
54178;DHT22;40085;53.004;6.770;2022-12-18T09:05:43;-5.20;99.90
54178;DHT22;40085;53.004;6.770;2022-12-18T09:08:08;-5.30;99.90
54178;DHT22;40085;53.004;6.770;2022-12-18T09:10:40;-5.20;99.90
54178;DHT22;40085;53.004;6.770;2022-12-18T09:13:06;-5.20;99.90
54178;DHT22;40085;53.004;6.770;2022-12-18T09:15:31;-5.00;99.90
54178;DHT22;40085;53.004;6.770;2022-12-18T09:17:57;-4.60;99.90
54178;DHT22;40085;53.004;6.770;2022-12-18T09:20:23;-4.90;99.90
54178;DHT22;40085;53.004;6.770;2022-12-18T09:22:48;-4.80;99.90
54178;DHT22;40085;53.004;6.770;2022-12-18T09:25:14;-4.80;99.90
54178;DHT22;40085;53.004;6.770;2022-12-18T09:27:39;-4.80;99.90
54178;DHT22;40085;53.004;6.770;2022-12-18T09:30:05;-4.70;99.90
54178;DHT22;40085;53.004;6.770;2022-12-18T09:32:31;-4.60;99.90
54178;DHT22;40085;53.004;6.770;2022-12-18T09:34:57;-4.50;99.90
54178;DHT22;40085;53.004;6.770;2022-12-18T09:37:22;-4.20;99.90
54178;DHT22;40085;53.004;6.770;2022-12-18T09:39:48;-4.40;99.90
54178;DHT22;40085;53.004;6.770;2022-12-18T09:42:23;-4.20;99.90
54178;DHT22;40085;53.004;6.770;2022-12-18T09:44:52;-4.20;99.90
54178;DHT22;40085;53.004;6.770;2022-12-18T09:47:28;-4.10;99.90
54178;DHT22;40085;53.004;6.770;2022-12-18T09:50:02;-4.00;99.90
54178;DHT22;40085;53.004;6.770;2022-12-18T09:52:43;-3.90;99.90
54178;DHT22;40085;53.004;6.770;2022-12-18T09:55:30;-3.80;99.90
54178;DHT22;40085;53.004;6.770;2022-12-18T09:58:01;-3.80;99.90
54178;DHT22;40085;53.004;6.770;2022-12-18T10:00:27;-3.70;99.90
54178;DHT22;40085;53.004;6.770;2022-12-18T10:02:59;-3.60;99.90
54178;DHT22;40085;53.004;6.770;2022-12-18T10:08:21;-3.60;99.90
54178;DHT22;40085;53.004;6.770;2022-12-18T10:11:00;-3.50;99.90
54178;DHT22;40085;53.004;6.770;2022-12-18T10:13:47;-3.50;99.90
54178;DHT22;40085;53.004;6.770;2022-12-18T10:22:03;-3.50;99.90
54178;DHT22;40085;53.004;6.770;2022-12-18T10:24:41;-3.50;99.90
54178;DHT22;40085;53.004;6.770;2022-12-18T10:27:23;-3.50;99.90
54178;DHT22;40085;53.004;6.770;2022-12-18T10:29:49;-3.50;99.90
54178;DHT22;40085;53.004;6.770;2022-12-18T10:32:21;-3.50;99.90
54178;DHT22;40085;53.004;6.770;2022-12-18T10:34:49;-3.20;99.90
54178;DHT22;40085;53.004;6.770;2022-12-18T10:37:21;-3.40;99.90
54178;DHT22;40085;53.004;6.770;2022-12-18T10:40:22;-3.10;99.90
54178;DHT22;40085;53.004;6.770;2022-12-18T10:43:10;-3.30;99.90
54178;DHT22;40085;53.004;6.770;2022-12-18T10:45:36;-3.30;99.90
54178;DHT22;40085;53.004;6.770;2022-12-18T10:48:03;-3.30;99.90
54178;DHT22;40085;53.004;6.770;2022-12-18T10:50:34;-3.20;99.90
54178;DHT22;40085;53.004;6.770;2022-12-18T10:53:03;-3.20;99.90
54178;DHT22;40085;53.004;6.770;2022-12-18T10:55:34;-3.00;99.90
54178;DHT22;40085;53.004;6.770;2022-12-18T10:58:26;-3.00;99.90
54178;DHT22;40085;53.004;6.770;2022-12-18T11:01:26;-3.00;99.90
54178;DHT22;40085;53.004;6.770;2022-12-18T11:06:23;-2.80;99.90
54178;DHT22;40085;53.004;6.770;2022-12-18T11:09:05;-2.70;99.90
54178;DHT22;40085;53.004;6.770;2022-12-18T11:11:31;-2.60;99.90
54178;DHT22;40085;53.004;6.770;2022-12-18T11:14:05;-2.60;99.90
54178;DHT22;40085;53.004;6.770;2022-12-18T11:16:44;-2.50;99.90
54178;DHT22;40085;53.004;6.770;2022-12-18T11:19:37;-2.40;99.90
54178;DHT22;40085;53.004;6.770;2022-12-18T11:22:21;-2.40;99.90
54178;DHT22;40085;53.004;6.770;2022-12-18T11:25:20;-2.30;99.90
54178;DHT22;40085;53.004;6.770;2022-12-18T11:27:56;-2.10;99.90
54178;DHT22;40085;53.004;6.770;2022-12-18T11:30:29;-2.20;99.90
54178;DHT22;40085;53.004;6.770;2022-12-18T11:33:14;-2.10;99.90
54178;DHT22;40085;53.004;6.770;2022-12-18T11:35:53;-2.00;99.90
54178;DHT22;40085;53.004;6.770;2022-12-18T11:38:32;-2.00;99.90
54178;DHT22;40085;53.004;6.770;2022-12-18T11:41:29;-2.00;99.90
54178;DHT22;40085;53.004;6.770;2022-12-18T11:44:22;-1.90;99.90
54178;DHT22;40085;53.004;6.770;2022-12-18T11:46:55;-1.90;99.90
54178;DHT22;40085;53.004;6.770;2022-12-18T11:49:34;-1.80;99.90
54178;DHT22;40085;53.004;6.770;2022-12-18T11:52:22;-1.80;99.90
54178;DHT22;40085;53.004;6.770;2022-12-18T11:54:58;-1.80;99.90
54178;DHT22;40085;53.004;6.770;2022-12-18T12:00:28;-1.70;99.90
54178;DHT22;40085;53.004;6.770;2022-12-18T12:03:13;-1.70;99.90
54178;DHT22;40085;53.004;6.770;2022-12-18T12:06:07;-1.70;99.90
54178;DHT22;40085;53.004;6.770;2022-12-18T12:08:59;-1.60;99.90
54178;DHT22;40085;53.004;6.770;2022-12-18T12:11:58;-1.60;99.90
54178;DHT22;40085;53.004;6.770;2022-12-18T12:17:15;-1.50;99.90
54178;DHT22;40085;53.004;6.770;2022-12-18T12:22:58;-1.40;99.90
54178;DHT22;40085;53.004;6.770;2022-12-18T12:34:13;-1.30;99.90
54178;DHT22;40085;53.004;6.770;2022-12-18T12:37:38;-1.20;99.90
54178;DHT22;40085;53.004;6.770;2022-12-18T12:39:44;-1.20;99.90
54178;DHT22;40085;53.004;6.770;2022-12-18T12:42:18;-1.20;99.90
54178;DHT22;40085;53.004;6.770;2022-12-18T12:45:06;-1.10;99.90
54178;DHT22;40085;53.004;6.770;2022-12-18T12:47:42;-1.00;99.90
54178;DHT22;40085;53.004;6.770;2022-12-18T12:50:17;-1.00;99.90
54178;DHT22;40085;53.004;6.770;2022-12-18T12:52:53;-1.00;99.90
54178;DHT22;40085;53.004;6.770;2022-12-18T12:55:22;-1.00;99.90
54178;DHT22;40085;53.004;6.770;2022-12-18T12:58:15;-0.90;99.90
54178;DHT22;40085;53.004;6.770;2022-12-18T13:03:35;-0.90;99.90
54178;DHT22;40085;53.004;6.770;2022-12-18T13:06:12;-0.90;99.90
54178;DHT22;40085;53.004;6.770;2022-12-18T13:08:58;-0.80;99.90
54178;DHT22;40085;53.004;6.770;2022-12-18T13:11:42;-0.80;99.90
54178;DHT22;40085;53.004;6.770;2022-12-18T13:14:38;-0.80;99.90
54178;DHT22;40085;53.004;6.770;2022-12-18T13:19:40;-0.70;99.90
54178;DHT22;40085;53.004;6.770;2022-12-18T13:22:24;-0.80;98.10
54178;DHT22;40085;53.004;6.770;2022-12-18T13:24:50;-0.80;95.90
54178;DHT22;40085;53.004;6.770;2022-12-18T13:28:07;-0.80;98.40
54178;DHT22;40085;53.004;6.770;2022-12-18T13:49:00;-0.80;98.30
54178;DHT22;40085;53.004;6.770;2022-12-18T13:51:27;-0.80;99.10
54178;DHT22;40085;53.004;6.770;2022-12-18T13:54:18;-0.80;98.30
54178;DHT22;40085;53.004;6.770;2022-12-18T13:56:44;-0.80;96.10
54178;DHT22;40085;53.004;6.770;2022-12-18T13:59:25;-0.80;97.90
54178;DHT22;40085;53.004;6.770;2022-12-18T14:01:56;-0.80;98.80
54178;DHT22;40085;53.004;6.770;2022-12-18T14:04:26;-0.80;97.40
54178;DHT22;40085;53.004;6.770;2022-12-18T14:06:56;-1.90;99.40
54178;DHT22;40085;53.004;6.770;2022-12-18T14:09:29;-0.80;99.50
54178;DHT22;40085;53.004;6.770;2022-12-18T14:11:56;-0.90;99.70
54178;DHT22;40085;53.004;6.770;2022-12-18T14:14:43;-0.90;99.90
54178;DHT22;40085;53.004;6.770;2022-12-18T14:17:13;-0.90;96.60
54178;DHT22;40085;53.004;6.770;2022-12-18T14:19:45;-0.90;98.20
54178;DHT22;40085;53.004;6.770;2022-12-18T14:22:17;-0.90;97.20
54178;DHT22;40085;53.004;6.770;2022-12-18T14:24:44;-0.90;97.40
54178;DHT22;40085;53.004;6.770;2022-12-18T14:27:24;-1.00;98.40
54178;DHT22;40085;53.004;6.770;2022-12-18T14:29:51;-1.00;99.10
54178;DHT22;40085;53.004;6.770;2022-12-18T14:32:19;-1.10;99.50
54178;DHT22;40085;53.004;6.770;2022-12-18T14:34:52;-1.10;98.30
54178;DHT22;40085;53.004;6.770;2022-12-18T14:37:26;-1.10;98.40
54178;DHT22;40085;53.004;6.770;2022-12-18T14:42:19;-1.20;99.90
54178;DHT22;40085;53.004;6.770;2022-12-18T14:44:45;-1.20;99.90
54178;DHT22;40085;53.004;6.770;2022-12-18T14:47:15;-1.20;99.90
54178;DHT22;40085;53.004;6.770;2022-12-18T14:49:41;-1.20;99.90
54178;DHT22;40085;53.004;6.770;2022-12-18T14:52:27;-1.20;99.90
54178;DHT22;40085;53.004;6.770;2022-12-18T14:54:54;-1.30;99.90
54178;DHT22;40085;53.004;6.770;2022-12-18T14:57:28;-1.30;99.90
54178;DHT22;40085;53.004;6.770;2022-12-18T15:00:10;-1.30;99.90
54178;DHT22;40085;53.004;6.770;2022-12-18T15:02:39;-1.30;99.90
54178;DHT22;40085;53.004;6.770;2022-12-18T15:05:27;-1.40;99.90
54178;DHT22;40085;53.004;6.770;2022-12-18T15:07:55;-1.40;99.90
54178;DHT22;40085;53.004;6.770;2022-12-18T15:20:45;-1.50;99.90
54178;DHT22;40085;53.004;6.770;2022-12-18T15:23:24;-1.60;99.90
54178;DHT22;40085;53.004;6.770;2022-12-18T15:26:03;-1.60;99.90
54178;DHT22;40085;53.004;6.770;2022-12-18T15:28:58;-1.60;99.90
54178;DHT22;40085;53.004;6.770;2022-12-18T15:31:29;-1.50;99.90
54178;DHT22;40085;53.004;6.770;2022-12-18T15:36:22;-1.60;99.90
54178;DHT22;40085;53.004;6.770;2022-12-18T15:38:49;-1.60;99.90
54178;DHT22;40085;53.004;6.770;2022-12-18T15:41:17;-1.60;99.90
54178;DHT22;40085;53.004;6.770;2022-12-18T15:43:44;-1.60;99.90
54178;DHT22;40085;53.004;6.770;2022-12-18T15:46:18;-1.60;99.90
54178;DHT22;40085;53.004;6.770;2022-12-18T15:48:47;-1.60;99.90
54178;DHT22;40085;53.004;6.770;2022-12-18T15:53:59;-1.50;99.90
54178;DHT22;40085;53.004;6.770;2022-12-18T15:56:26;-1.60;99.90
54178;DHT22;40085;53.004;6.770;2022-12-18T15:59:15;-1.50;99.90
54178;DHT22;40085;53.004;6.770;2022-12-18T16:01:44;-1.50;99.90
54178;DHT22;40085;53.004;6.770;2022-12-18T16:04:14;-1.50;99.90
54178;DHT22;40085;53.004;6.770;2022-12-18T16:06:41;-1.50;99.90
54178;DHT22;40085;53.004;6.770;2022-12-18T16:09:07;-1.50;99.90
54178;DHT22;40085;53.004;6.770;2022-12-18T16:11:35;-1.50;99.90
54178;DHT22;40085;53.004;6.770;2022-12-18T16:14:05;-1.50;99.90
54178;DHT22;40085;53.004;6.770;2022-12-18T16:16:31;-1.50;99.90
54178;DHT22;40085;53.004;6.770;2022-12-18T16:18:56;-1.50;99.90
54178;DHT22;40085;53.004;6.770;2022-12-18T16:21:22;-1.50;99.90
54178;DHT22;40085;53.004;6.770;2022-12-18T16:23:47;-1.50;99.90
54178;DHT22;40085;53.004;6.770;2022-12-18T16:26:13;-1.50;99.90
54178;DHT22;40085;53.004;6.770;2022-12-18T16:28:38;-1.60;99.90
54178;DHT22;40085;53.004;6.770;2022-12-18T16:31:04;-1.60;99.90
54178;DHT22;40085;53.004;6.770;2022-12-18T16:33:30;-1.50;99.90
54178;DHT22;40085;53.004;6.770;2022-12-18T16:35:55;-1.60;99.90
54178;DHT22;40085;53.004;6.770;2022-12-18T16:38:21;-1.50;99.90
54178;DHT22;40085;53.004;6.770;2022-12-18T16:40:46;-1.50;99.90
54178;DHT22;40085;53.004;6.770;2022-12-18T16:43:31;-1.50;99.90
54178;DHT22;40085;53.004;6.770;2022-12-18T16:45:58;-1.50;99.90
54178;DHT22;40085;53.004;6.770;2022-12-18T16:48:24;-1.50;99.90
54178;DHT22;40085;53.004;6.770;2022-12-18T16:50:49;-1.50;99.90
54178;DHT22;40085;53.004;6.770;2022-12-18T16:53:15;-1.50;99.90
54178;DHT22;40085;53.004;6.770;2022-12-18T16:55:41;-1.50;99.90
54178;DHT22;40085;53.004;6.770;2022-12-18T16:58:06;-1.40;99.90
54178;DHT22;40085;53.004;6.770;2022-12-18T17:00:32;-1.40;99.90
54178;DHT22;40085;53.004;6.770;2022-12-18T17:02:57;-1.40;99.90
54178;DHT22;40085;53.004;6.770;2022-12-18T17:05:23;-1.40;99.90
54178;DHT22;40085;53.004;6.770;2022-12-18T17:07:48;-1.40;99.90
54178;DHT22;40085;53.004;6.770;2022-12-18T17:10:14;-1.40;99.90
54178;DHT22;40085;53.004;6.770;2022-12-18T17:12:40;-1.40;99.90
54178;DHT22;40085;53.004;6.770;2022-12-18T17:15:06;-1.40;99.90
54178;DHT22;40085;53.004;6.770;2022-12-18T17:17:32;-1.40;99.90
54178;DHT22;40085;53.004;6.770;2022-12-18T17:19:57;-1.40;99.90
54178;DHT22;40085;53.004;6.770;2022-12-18T17:22:23;-1.40;99.90